Time;durP1;ratioP1;P1;durP2;ratioP2;P2;SDS_P1;SDS_P2;PMS_P1;PMS_P2;Temp;Humidity;BMP_temperature;BMP_pressure;BME280_temperature;BME280_humidity;BME280_pressure;Samples;Min_cycle;Max_cycle;Signal;HPM_P1;HPM_P2
2022/11/13 00:01:25;;;;;;;76.38;36.33;;;;;;;;;;5058067;28;20220;-47
2022/11/13 00:04:11;;;;;;;77.97;36.42;;;;;;;;;;5058341;28;20722;-46
2022/11/13 00:06:57;;;;;;;71.50;33.08;;;;;;;;;;5058524;28;20215;-47
2022/11/13 00:09:43;;;;;;;70.13;34.08;;;;;;;;;;5058400;28;20204;-46
2022/11/13 00:12:29;;;;;;;74.30;34.13;;;;;;;;;;5058436;28;20196;-48
2022/11/13 00:15:15;;;;;;;71.50;34.13;;;;;;;;;;5058655;28;20208;-50
2022/11/13 00:18:01;;;;;;;69.55;34.72;;;;;;;;;;5058067;28;20607;-49
2022/11/13 00:20:47;;;;;;;71.95;36.05;;;;;;;;;;5058065;28;20541;-48
2022/11/13 00:23:34;;;;;;;81.45;44.90;;;;;;;;;;5058108;28;20231;-47
2022/11/13 00:26:22;;;;;;;79.65;39.60;;;;;;;;;;5058119;28;20211;-49
2022/11/13 00:29:08;;;;;;;80.72;36.00;;;;;;;;;;5058107;28;20262;-46
2022/11/13 00:31:54;;;;;;;90.45;39.97;;;;;;;;;;5057552;28;20214;-46
2022/11/13 00:34:39;;;;;;;78.40;35.60;;;;;;;;;;5057846;28;20203;-46
2022/11/13 00:37:32;;;;;;;82.75;36.90;;;;;;;;;;5057717;28;20211;-47
2022/11/13 00:40:18;;;;;;;77.60;36.70;;;;;;;;;;5057827;28;20216;-48
2022/11/13 00:43:03;;;;;;;77.82;36.22;;;;;;;;;;5058145;28;20575;-49
2022/11/13 00:45:49;;;;;;;76.88;35.58;;;;;;;;;;5057495;28;20200;-49
2022/11/13 00:48:35;;;;;;;85.30;37.47;;;;;;;;;;5057803;28;20290;-47
2022/11/13 00:51:21;;;;;;;78.50;38.22;;;;;;;;;;5057648;28;20214;-49
2022/11/13 00:54:06;;;;;;;84.85;37.90;;;;;;;;;;5057530;28;20216;-46
2022/11/13 00:56:51;;;;;;;91.10;39.28;;;;;;;;;;5057163;28;20219;-46
2022/11/13 00:59:37;;;;;;;98.00;40.33;;;;;;;;;;5057429;28;20528;-49
2022/11/13 01:02:22;;;;;;;86.18;37.13;;;;;;;;;;5057579;28;20258;-48
2022/11/13 01:05:08;;;;;;;86.65;38.58;;;;;;;;;;5056872;28;20254;-49
2022/11/13 01:07:54;;;;;;;82.18;39.58;;;;;;;;;;5057241;28;20192;-48
2022/11/13 01:10:42;;;;;;;82.97;38.58;;;;;;;;;;5056543;28;20192;-48
2022/11/13 01:13:30;;;;;;;81.03;38.13;;;;;;;;;;5056806;28;20247;-51
2022/11/13 01:16:17;;;;;;;93.18;39.28;;;;;;;;;;5057217;28;20238;-47
2022/11/13 01:19:03;;;;;;;113.32;44.83;;;;;;;;;;5056953;28;20641;-47
2022/11/13 01:21:48;;;;;;;79.75;43.47;;;;;;;;;;5056756;28;20223;-47
2022/11/13 01:24:34;;;;;;;83.05;39.00;;;;;;;;;;5057173;28;20208;-48
2022/11/13 01:27:20;;;;;;;74.13;35.92;;;;;;;;;;5056655;28;20200;-48
2022/11/13 01:30:06;;;;;;;80.00;37.28;;;;;;;;;;5056583;28;20273;-49
2022/11/13 01:32:51;;;;;;;74.22;36.65;;;;;;;;;;5056934;28;20535;-47
2022/11/13 01:35:37;;;;;;;74.75;35.47;;;;;;;;;;5056599;28;20547;-50
2022/11/13 01:38:22;;;;;;;76.40;37.30;;;;;;;;;;5056323;28;20685;-46
2022/11/13 01:41:15;;;;;;;78.03;35.45;;;;;;;;;;5056467;28;20212;-48
2022/11/13 01:44:12;;;;;;;94.95;39.33;;;;;;;;;;5056398;28;20200;-49
2022/11/13 01:46:58;;;;;;;99.22;43.47;;;;;;;;;;5056459;28;20620;-46
2022/11/13 01:49:44;;;;;;;104.40;54.25;;;;;;;;;;5056865;28;20203;-46
2022/11/13 01:52:35;;;;;;;90.88;42.50;;;;;;;;;;5056509;28;20204;-49
2022/11/13 01:55:20;;;;;;;116.73;43.37;;;;;;;;;;5055687;28;20210;-50
2022/11/13 01:58:07;;;;;;;81.75;37.47;;;;;;;;;;5055783;28;20208;-48
2022/11/13 02:00:53;;;;;;;86.70;39.65;;;;;;;;;;5055367;28;20437;-48
2022/11/13 02:03:38;;;;;;;81.68;38.42;;;;;;;;;;5056146;28;20636;-47
2022/11/13 02:06:27;;;;;;;85.65;38.08;;;;;;;;;;5055924;28;20207;-48
2022/11/13 02:09:15;;;;;;;75.57;35.40;;;;;;;;;;5055245;28;20207;-49
2022/11/13 02:12:00;;;;;;;78.25;37.30;;;;;;;;;;5055681;28;20219;-48
2022/11/13 02:14:51;;;;;;;94.95;42.60;;;;;;;;;;5055413;28;20208;-46
2022/11/13 02:17:43;;;;;;;79.65;39.28;;;;;;;;;;5055804;28;20215;-46
2022/11/13 02:21:10;;;;;;;72.75;35.25;;;;;;;;;;5054581;28;20672;-50
2022/11/13 02:24:00;;;;;;;84.20;36.67;;;;;;;;;;5055183;28;20258;-47
2022/11/13 02:26:48;;;;;;;75.70;36.95;;;;;;;;;;5055440;28;20330;-46
2022/11/13 02:29:33;;;;;;;70.88;34.80;;;;;;;;;;5054927;28;20577;-48
2022/11/13 02:32:19;;;;;;;76.43;34.63;;;;;;;;;;5055596;28;20192;-49
2022/11/13 02:35:04;;;;;;;76.95;35.65;;;;;;;;;;5055335;28;20620;-47
2022/11/13 02:37:50;;;;;;;84.53;35.72;;;;;;;;;;5055862;28;20204;-47
2022/11/13 02:40:36;;;;;;;69.85;33.47;;;;;;;;;;5055464;28;20220;-47
2022/11/13 02:43:22;;;;;;;87.15;38.22;;;;;;;;;;5055754;28;20203;-50
2022/11/13 02:46:07;;;;;;;96.70;43.08;;;;;;;;;;5055374;28;20199;-48
2022/11/13 02:48:53;;;;;;;73.50;33.30;;;;;;;;;;5055358;28;20723;-48
2022/11/13 02:51:38;;;;;;;69.15;31.90;;;;;;;;;;5055139;28;20532;-47
2022/11/13 02:54:24;;;;;;;66.30;30.88;;;;;;;;;;5055291;28;20636;-47
2022/11/13 02:57:09;;;;;;;67.43;31.38;;;;;;;;;;5055219;28;20204;-49
2022/11/13 02:59:55;;;;;;;66.72;30.45;;;;;;;;;;5054839;28;20211;-47
2022/11/13 03:02:40;;;;;;;70.20;31.40;;;;;;;;;;5054859;28;20188;-48
2022/11/13 03:05:26;;;;;;;71.53;31.45;;;;;;;;;;5055042;28;20253;-49
2022/11/13 03:08:12;;;;;;;68.00;32.75;;;;;;;;;;5055517;28;20211;-48
2022/11/13 03:10:57;;;;;;;72.13;32.30;;;;;;;;;;5055059;28;20715;-47
2022/11/13 03:13:43;;;;;;;121.63;65.25;;;;;;;;;;5055214;28;20642;-48
2022/11/13 03:16:28;;;;;;;72.57;34.72;;;;;;;;;;5055243;28;20235;-47
2022/11/13 03:19:13;;;;;;;78.72;34.63;;;;;;;;;;5054764;28;20695;-48
2022/11/13 03:21:59;;;;;;;75.38;34.10;;;;;;;;;;5054702;28;20227;-47
2022/11/13 03:24:44;;;;;;;71.13;32.78;;;;;;;;;;5054642;28;20210;-48
2022/11/13 03:27:31;;;;;;;63.33;31.95;;;;;;;;;;5054963;28;20512;-47
2022/11/13 03:30:17;;;;;;;63.28;31.20;;;;;;;;;;5054760;28;20282;-47
2022/11/13 03:33:03;;;;;;;69.95;31.55;;;;;;;;;;5057214;28;20211;-47
2022/11/13 03:35:48;;;;;;;69.72;31.75;;;;;;;;;;5058714;28;20707;-49
2022/11/13 03:38:34;;;;;;;68.00;31.23;;;;;;;;;;5058689;28;20199;-47
2022/11/13 03:41:20;;;;;;;75.40;36.17;;;;;;;;;;5058446;28;20552;-48
2022/11/13 03:44:07;;;;;;;93.30;37.80;;;;;;;;;;5058560;28;20211;-48
2022/11/13 03:46:52;;;;;;;75.25;33.47;;;;;;;;;;5058821;28;20203;-48
2022/11/13 03:49:38;;;;;;;75.53;33.28;;;;;;;;;;5058668;28;20249;-48
2022/11/13 03:52:24;;;;;;;70.97;31.17;;;;;;;;;;5058721;28;20282;-47
2022/11/13 03:55:09;;;;;;;61.70;29.83;;;;;;;;;;5058592;28;20616;-47
2022/11/13 03:57:54;;;;;;;76.43;32.90;;;;;;;;;;5058493;28;20210;-48
2022/11/13 04:00:41;;;;;;;69.95;32.80;;;;;;;;;;5058058;28;20660;-51
2022/11/13 04:03:26;;;;;;;89.82;53.78;;;;;;;;;;5058666;28;20273;-48
2022/11/13 04:06:13;;;;;;;71.68;34.00;;;;;;;;;;5058287;28;20211;-48
2022/11/13 04:08:59;;;;;;;72.18;32.38;;;;;;;;;;5058115;28;20286;-47
2022/11/13 04:11:44;;;;;;;85.53;34.20;;;;;;;;;;5058399;28;20223;-47
2022/11/13 04:14:30;;;;;;;73.18;33.95;;;;;;;;;;5058134;28;20256;-49
2022/11/13 04:17:16;;;;;;;68.35;31.40;;;;;;;;;;5058652;28;20232;-47
2022/11/13 04:20:01;;;;;;;66.30;30.63;;;;;;;;;;5058210;28;20275;-47
2022/11/13 04:22:47;;;;;;;62.95;30.08;;;;;;;;;;5057972;28;20215;-49
2022/11/13 04:25:32;;;;;;;64.03;29.17;;;;;;;;;;5058618;28;20204;-46
2022/11/13 04:28:17;;;;;;;63.67;29.88;;;;;;;;;;5058320;28;20204;-49
2022/11/13 04:31:02;;;;;;;78.35;38.22;;;;;;;;;;5057951;28;20211;-51
2022/11/13 04:33:48;;;;;;;79.68;36.10;;;;;;;;;;5057663;28;20262;-48
2022/11/13 04:36:33;;;;;;;72.82;32.67;;;;;;;;;;5057972;28;20211;-47
2022/11/13 04:39:19;;;;;;;68.95;32.67;;;;;;;;;;5057840;28;20208;-47
2022/11/13 04:45:08;;;;;;;62.20;28.05;;;;;;;;;;5056996;28;20273;-47
2022/11/13 04:47:54;;;;;;;62.75;28.63;;;;;;;;;;5057643;28;20203;-48
2022/11/13 04:50:40;;;;;;;63.70;27.95;;;;;;;;;;5057651;28;20203;-47
2022/11/13 04:53:25;;;;;;;64.40;29.02;;;;;;;;;;5064861;28;20203;-57
2022/11/13 04:56:11;;;;;;;69.60;32.75;;;;;;;;;;5074656;28;20563;-52
2022/11/13 04:58:57;;;;;;;72.82;33.63;;;;;;;;;;5073829;28;20633;-51
2022/11/13 05:01:43;;;;;;;83.82;35.17;;;;;;;;;;5073201;28;20640;-48
2022/11/13 05:04:28;;;;;;;79.57;33.20;;;;;;;;;;5075120;28;20257;-49
2022/11/13 05:07:14;;;;;;;66.90;28.38;;;;;;;;;;5075300;28;20207;-48
2022/11/13 05:10:01;;;;;;;61.92;29.23;;;;;;;;;;5073486;28;20202;-48
2022/11/13 05:12:46;;;;;;;69.55;30.60;;;;;;;;;;5073652;28;20203;-47
2022/11/13 05:15:32;;;;;;;58.00;27.05;;;;;;;;;;5074478;28;20261;-50
2022/11/13 05:18:17;;;;;;;61.17;27.02;;;;;;;;;;5075852;28;20199;-48
2022/11/13 05:21:05;;;;;;;124.32;63.85;;;;;;;;;;5071580;28;20225;-50
2022/11/13 05:23:50;;;;;;;56.97;28.33;;;;;;;;;;5072718;28;20195;-50
2022/11/13 05:26:37;;;;;;;49.58;23.85;;;;;;;;;;5072503;28;20206;-48
2022/11/13 05:29:23;;;;;;;55.70;23.95;;;;;;;;;;5073331;28;20199;-57
2022/11/13 05:32:08;;;;;;;44.38;22.83;;;;;;;;;;5074058;28;20210;-48
2022/11/13 05:34:54;;;;;;;63.03;28.42;;;;;;;;;;5075486;28;20257;-54
2022/11/13 05:37:39;;;;;;;52.75;26.00;;;;;;;;;;5072364;28;20203;-53
2022/11/13 05:40:24;;;;;;;67.03;30.05;;;;;;;;;;5079163;28;20196;-49
2022/11/13 05:43:10;;;;;;;63.72;29.05;;;;;;;;;;5073996;28;20195;-53
2022/11/13 05:46:03;;;;;;;67.00;30.05;;;;;;;;;;5069645;28;20269;-49
2022/11/13 05:48:53;;;;;;;86.47;40.35;;;;;;;;;;5076221;28;20187;-49
2022/11/13 05:51:39;;;;;;;52.60;25.30;;;;;;;;;;5076065;28;20219;-48
2022/11/13 05:54:24;;;;;;;58.63;27.40;;;;;;;;;;5070833;28;20273;-50
2022/11/13 05:57:10;;;;;;;67.63;29.17;;;;;;;;;;5055035;28;20208;-47
2022/11/13 05:59:56;;;;;;;56.47;26.63;;;;;;;;;;5056033;28;20203;-49
2022/11/13 06:02:41;;;;;;;60.20;27.70;;;;;;;;;;5055904;28;20223;-51
2022/11/13 06:05:26;;;;;;;61.13;28.52;;;;;;;;;;5055891;28;20215;-47
2022/11/13 06:08:12;;;;;;;69.35;27.23;;;;;;;;;;5055527;28;20219;-47
2022/11/13 06:11:04;;;;;;;77.60;40.50;;;;;;;;;;5064954;28;20329;-48
2022/11/13 06:13:50;;;;;;;61.75;28.23;;;;;;;;;;5075806;28;20628;-47
2022/11/13 06:16:37;;;;;;;58.13;26.63;;;;;;;;;;5075338;28;20227;-49
2022/11/13 06:19:22;;;;;;;56.92;26.65;;;;;;;;;;5075685;28;20215;-47
2022/11/13 06:22:08;;;;;;;58.55;27.58;;;;;;;;;;5075869;28;20219;-48
2022/11/13 06:24:53;;;;;;;56.67;26.65;;;;;;;;;;5075727;28;20195;-47
2022/11/13 06:27:39;;;;;;;52.47;24.65;;;;;;;;;;5075743;28;20199;-49
2022/11/13 06:30:24;;;;;;;57.05;25.30;;;;;;;;;;5074704;28;20206;-50
2022/11/13 06:33:10;;;;;;;58.65;26.52;;;;;;;;;;5075687;28;20198;-47
2022/11/13 06:35:56;;;;;;;65.88;27.25;;;;;;;;;;5075226;28;20203;-48
2022/11/13 06:38:42;;;;;;;71.25;35.35;;;;;;;;;;5075573;28;20624;-50
2022/11/13 06:41:30;;;;;;;72.32;31.08;;;;;;;;;;5075422;28;20227;-51
2022/11/13 06:44:15;;;;;;;74.95;30.48;;;;;;;;;;5072333;28;20214;-48
2022/11/13 06:47:00;;;;;;;53.03;26.15;;;;;;;;;;5055337;28;20196;-48
2022/11/13 06:49:46;;;;;;;58.50;26.35;;;;;;;;;;5055483;28;20287;-48
2022/11/13 06:52:31;;;;;;;59.63;26.63;;;;;;;;;;5055249;28;20208;-48
2022/11/13 06:55:16;;;;;;;52.72;25.98;;;;;;;;;;5054929;28;20319;-51
2022/11/13 06:58:02;;;;;;;58.53;27.42;;;;;;;;;;5059688;28;20623;-48
2022/11/13 07:00:48;;;;;;;59.95;27.08;;;;;;;;;;5063759;28;20242;-48
2022/11/13 07:03:34;;;;;;;52.85;25.63;;;;;;;;;;5065816;28;20231;-52
2022/11/13 07:06:22;;;;;;;70.75;33.13;;;;;;;;;;5074315;28;20225;-49
2022/11/13 07:09:08;;;;;;;56.03;26.67;;;;;;;;;;5056848;28;20250;-51
2022/11/13 07:11:53;;;;;;;58.00;26.15;;;;;;;;;;5069648;28;20320;-49
2022/11/13 07:14:39;;;;;;;61.92;27.50;;;;;;;;;;5074041;28;20644;-49
2022/11/13 07:17:27;;;;;;;53.80;25.88;;;;;;;;;;5063206;28;20238;-52
2022/11/13 07:20:14;;;;;;;49.13;23.45;;;;;;;;;;5057489;28;20284;-48
2022/11/13 07:23:01;;;;;;;50.72;23.95;;;;;;;;;;5073783;28;20280;-48
2022/11/13 07:25:47;;;;;;;48.58;23.50;;;;;;;;;;5074093;28;20234;-48
2022/11/13 07:28:33;;;;;;;51.17;28.40;;;;;;;;;;5073657;28;20230;-50
2022/11/13 07:31:19;;;;;;;56.05;28.65;;;;;;;;;;5073769;28;20558;-49
2022/11/13 07:34:04;;;;;;;52.65;26.02;;;;;;;;;;5073707;28;20223;-47
2022/11/13 07:36:50;;;;;;;57.28;26.63;;;;;;;;;;5073926;28;20679;-48
2022/11/13 07:39:35;;;;;;;51.83;25.33;;;;;;;;;;5067255;28;20656;-48
2022/11/13 07:42:21;;;;;;;52.13;24.52;;;;;;;;;;5053984;28;20239;-41
2022/11/13 07:45:07;;;;;;;51.80;24.83;;;;;;;;;;5053949;28;20277;-48
2022/11/13 07:48:02;;;;;;;53.00;26.65;;;;;;;;;;5059747;28;20215;-49
2022/11/13 07:50:48;;;;;;;55.65;26.25;;;;;;;;;;5073824;28;20479;-54
2022/11/13 07:53:34;;;;;;;54.63;26.60;;;;;;;;;;5073783;28;20238;-55
2022/11/13 07:56:21;;;;;;;67.38;37.88;;;;;;;;;;5073429;28;20692;-51
2022/11/13 07:59:07;;;;;;;56.92;26.30;;;;;;;;;;5073667;28;20238;-52
2022/11/13 08:01:53;;;;;;;61.17;27.13;;;;;;;;;;5073150;28;20249;-52
2022/11/13 08:04:38;;;;;;;53.65;25.08;;;;;;;;;;5073810;28;20550;-51
2022/11/13 08:07:24;;;;;;;46.97;23.45;;;;;;;;;;5073375;28;20226;-51
2022/11/13 08:10:10;;;;;;;49.75;24.23;;;;;;;;;;5073535;28;20673;-55
2022/11/13 08:13:01;;;;;;;52.45;24.33;;;;;;;;;;5073690;28;20652;-51
2022/11/13 08:15:46;;;;;;;50.45;24.40;;;;;;;;;;5073313;28;20247;-49
2022/11/13 08:18:32;;;;;;;47.10;22.90;;;;;;;;;;5072723;28;20226;-54
2022/11/13 08:21:20;;;;;;;44.63;22.10;;;;;;;;;;5077074;28;20227;-49
2022/11/13 08:24:05;;;;;;;47.63;24.02;;;;;;;;;;5076966;28;20223;-54
2022/11/13 08:26:51;;;;;;;47.20;25.50;;;;;;;;;;5075852;28;20628;-54
2022/11/13 08:29:36;;;;;;;62.75;32.10;;;;;;;;;;5073512;28;20195;-54
2022/11/13 08:32:22;;;;;;;79.65;39.88;;;;;;;;;;5071501;28;20210;-55
2022/11/13 08:35:07;;;;;;;57.42;27.40;;;;;;;;;;5077551;28;20214;-54
2022/11/13 08:37:53;;;;;;;49.53;25.15;;;;;;;;;;5064680;28;20227;-54
2022/11/13 08:40:38;;;;;;;57.53;29.75;;;;;;;;;;5057975;28;20277;-52
2022/11/13 08:43:24;;;;;;;48.63;25.27;;;;;;;;;;5058328;28;20223;-53
2022/11/13 08:46:09;;;;;;;47.13;23.65;;;;;;;;;;5057760;28;20204;-50
2022/11/13 08:48:55;;;;;;;47.45;22.55;;;;;;;;;;5058952;28;20195;-53
2022/11/13 08:51:41;;;;;;;53.63;25.85;;;;;;;;;;5077199;28;20608;-53
2022/11/13 08:54:26;;;;;;;48.70;24.27;;;;;;;;;;5077576;28;20195;-52
2022/11/13 08:57:12;;;;;;;54.15;25.77;;;;;;;;;;5077347;28;20200;-52
2022/11/13 08:59:57;;;;;;;51.22;24.65;;;;;;;;;;5090274;28;20200;-52
2022/11/13 09:02:43;;;;;;;48.83;22.20;;;;;;;;;;5077196;28;20231;-50
2022/11/13 09:05:29;;;;;;;43.80;23.23;;;;;;;;;;5077460;28;20203;-53
2022/11/13 09:08:14;;;;;;;45.05;23.45;;;;;;;;;;5077091;28;20215;-54
2022/11/13 09:11:03;;;;;;;49.63;24.95;;;;;;;;;;5077178;28;20199;-56
2022/11/13 09:13:48;;;;;;;45.58;22.80;;;;;;;;;;5076914;28;20671;-54
2022/11/13 09:16:38;;;;;;;49.60;23.70;;;;;;;;;;5075423;28;20567;-53
2022/11/13 09:19:24;;;;;;;52.67;27.58;;;;;;;;;;5076736;28;20194;-52
2022/11/13 09:22:10;;;;;;;49.65;26.75;;;;;;;;;;5076925;28;20243;-50
2022/11/13 09:24:55;;;;;;;61.80;29.67;;;;;;;;;;5076640;28;20644;-55
2022/11/13 09:27:40;;;;;;;49.95;25.13;;;;;;;;;;5076968;28;20665;-55
2022/11/13 09:30:27;;;;;;;66.32;33.13;;;;;;;;;;5076522;28;20231;-53
2022/11/13 09:33:15;;;;;;;57.78;27.25;;;;;;;;;;5076618;28;20207;-55
2022/11/13 09:36:01;;;;;;;56.35;25.67;;;;;;;;;;5076494;28;20317;-52
2022/11/13 09:38:47;;;;;;;58.03;27.48;;;;;;;;;;5076361;28;20270;-50
2022/11/13 09:41:43;;;;;;;51.03;25.95;;;;;;;;;;5076394;28;20576;-52
2022/11/13 09:44:41;;;;;;;52.17;25.20;;;;;;;;;;5075796;28;20667;-51
2022/11/13 09:47:31;;;;;;;55.40;26.80;;;;;;;;;;5075581;28;20278;-53
2022/11/13 09:50:23;;;;;;;80.35;37.42;;;;;;;;;;5076131;28;20659;-50
2022/11/13 09:53:11;;;;;;;57.03;28.98;;;;;;;;;;5075625;28;20533;-51
2022/11/13 09:56:07;;;;;;;57.03;28.30;;;;;;;;;;5076154;28;20207;-53
2022/11/13 09:59:15;;;;;;;55.58;26.05;;;;;;;;;;5075208;28;20204;-50
2022/11/13 10:02:11;;;;;;;51.85;26.00;;;;;;;;;;5075477;28;20226;-52
2022/11/13 10:05:25;;;;;;;51.63;25.80;;;;;;;;;;5074423;28;20283;-64
2022/11/13 10:08:27;;;;;;;57.08;27.15;;;;;;;;;;5053803;28;20227;-63
2022/11/13 10:11:37;;;;;;;54.95;26.33;;;;;;;;;;5074222;28;20319;-56
2022/11/13 10:14:34;;;;;;;54.58;25.55;;;;;;;;;;5073858;28;20298;-52
2022/11/13 10:17:28;;;;;;;58.53;26.27;;;;;;;;;;5064505;28;20250;-59
2022/11/13 10:20:29;;;;;;;63.55;31.98;;;;;;;;;;5072494;28;20690;-61
2022/11/13 10:23:24;;;;;;;55.15;26.98;;;;;;;;;;5074030;28;20239;-62
2022/11/13 10:26:13;;;;;;;49.88;25.92;;;;;;;;;;5074379;28;20235;-63
2022/11/13 10:29:11;;;;;;;53.92;26.13;;;;;;;;;;5074503;28;20672;-61
2022/11/13 10:31:58;;;;;;;56.70;27.23;;;;;;;;;;5074812;28;20293;-60
2022/11/13 10:34:51;;;;;;;50.67;25.45;;;;;;;;;;5074584;28;20223;-60
2022/11/13 10:37:51;;;;;;;50.97;26.33;;;;;;;;;;5064713;28;20228;-59
2022/11/13 10:40:38;;;;;;;66.47;37.10;;;;;;;;;;5070291;28;20242;-63
2022/11/13 10:43:25;;;;;;;57.03;30.60;;;;;;;;;;5073893;28;20222;-59
2022/11/13 10:46:17;;;;;;;74.35;33.08;;;;;;;;;;5074003;28;20227;-59
2022/11/13 10:49:12;;;;;;;59.45;28.92;;;;;;;;;;5073560;28;20234;-59
2022/11/13 10:51:59;;;;;;;57.97;27.58;;;;;;;;;;5073710;28;20238;-59
2022/11/13 10:54:45;;;;;;;53.80;25.70;;;;;;;;;;5074023;28;20223;-56
2022/11/13 10:57:33;;;;;;;53.42;26.23;;;;;;;;;;5071305;28;20227;-58
2022/11/13 11:00:26;;;;;;;58.58;27.10;;;;;;;;;;5068705;28;20215;-58
2022/11/13 11:03:13;;;;;;;50.08;25.73;;;;;;;;;;5071012;28;20324;-60
2022/11/13 11:06:01;;;;;;;50.35;26.25;;;;;;;;;;5072977;28;20211;-59
2022/11/13 11:08:47;;;;;;;60.53;30.20;;;;;;;;;;5072129;28;20223;-60
2022/11/13 11:15:00;;;;;;;62.33;28.40;;;;;;;;;;5071367;28;20237;-59
2022/11/13 11:17:50;;;;;;;60.10;26.90;;;;;;;;;;5072285;28;20226;-59
2022/11/13 11:20:50;;;;;;;60.15;28.13;;;;;;;;;;5070438;28;20691;-60
2022/11/13 11:23:42;;;;;;;54.58;26.67;;;;;;;;;;5069260;28;20675;-60
2022/11/13 11:26:34;;;;;;;54.25;26.13;;;;;;;;;;5072902;28;20215;-59
2022/11/13 11:29:30;;;;;;;52.00;25.85;;;;;;;;;;5071185;28;20738;-62
2022/11/13 11:32:24;;;;;;;60.78;27.02;;;;;;;;;;5070249;28;20359;-60
2022/11/13 11:35:45;;;;;;;57.65;27.02;;;;;;;;;;5065958;28;20231;-56
2022/11/13 11:38:37;;;;;;;52.55;26.17;;;;;;;;;;5037035;28;20228;-59
2022/11/13 11:41:28;;;;;;;55.70;29.13;;;;;;;;;;5053692;28;20243;-59
2022/11/13 11:44:21;;;;;;;60.35;28.25;;;;;;;;;;5071489;28;20234;-60
2022/11/13 11:47:13;;;;;;;63.88;29.45;;;;;;;;;;5074069;28;20223;-59
2022/11/13 11:49:59;;;;;;;57.58;28.75;;;;;;;;;;5071194;28;20227;-59
2022/11/13 11:52:51;;;;;;;57.30;28.48;;;;;;;;;;5066165;28;20218;-61
2022/11/13 11:55:58;;;;;;;57.00;27.55;;;;;;;;;;5075941;28;20280;-58
2022/11/13 11:58:44;;;;;;;56.17;27.63;;;;;;;;;;5067981;28;20698;-61
2022/11/13 12:01:35;;;;;;;55.88;28.20;;;;;;;;;;5073004;28;20311;-61
2022/11/13 12:04:34;;;;;;;59.90;27.88;;;;;;;;;;5065638;28;20554;-61
2022/11/13 12:07:56;;;;;;;66.43;29.77;;;;;;;;;;5076940;28;20211;-59
2022/11/13 12:10:49;;;;;;;58.72;26.58;;;;;;;;;;5077443;28;20215;-58
2022/11/13 12:13:54;;;;;;;55.05;25.83;;;;;;;;;;5077046;28;20277;-58
2022/11/13 12:16:47;;;;;;;54.67;27.13;;;;;;;;;;5071247;28;20568;-59
2022/11/13 12:19:51;;;;;;;53.15;25.02;;;;;;;;;;5076396;28;20223;-60
2022/11/13 12:23:01;;;;;;;50.60;26.02;;;;;;;;;;5075996;28;20226;-59
2022/11/13 12:26:13;;;;;;;58.92;26.63;;;;;;;;;;5075133;28;20248;-58
2022/11/13 12:29:35;;;;;;;54.75;25.63;;;;;;;;;;5075701;28;20215;-58
2022/11/13 12:32:38;;;;;;;71.88;35.50;;;;;;;;;;5075881;28;20242;-59
2022/11/13 12:35:25;;;;;;;63.97;32.03;;;;;;;;;;5073559;28;20288;-57
2022/11/13 12:38:38;;;;;;;52.50;27.17;;;;;;;;;;5075875;28;20233;-51
2022/11/13 12:41:28;;;;;;;59.63;27.63;;;;;;;;;;5076456;28;20227;-57
2022/11/13 12:44:24;;;;;;;63.17;28.38;;;;;;;;;;5059060;28;20288;-58
2022/11/13 12:47:10;;;;;;;57.00;27.67;;;;;;;;;;5075609;28;20226;-58
2022/11/13 12:50:00;;;;;;;55.25;25.40;;;;;;;;;;5074338;28;20223;-60
2022/11/13 12:52:59;;;;;;;53.53;26.80;;;;;;;;;;5055525;28;20293;-57
2022/11/13 12:55:55;;;;;;;62.10;27.40;;;;;;;;;;5056287;28;20220;-58
2022/11/13 12:58:51;;;;;;;63.85;29.10;;;;;;;;;;5064143;28;20223;-58
2022/11/13 13:02:05;;;;;;;74.18;34.55;;;;;;;;;;5075592;28;20234;-60
2022/11/13 13:05:00;;;;;;;67.85;34.10;;;;;;;;;;5074877;28;20272;-56
2022/11/13 13:08:13;;;;;;;66.53;30.83;;;;;;;;;;5075796;28;20238;-60
2022/11/13 13:11:09;;;;;;;76.90;30.67;;;;;;;;;;5076137;28;20219;-60
2022/11/13 13:14:23;;;;;;;73.97;31.65;;;;;;;;;;5071380;28;20298;-58
2022/11/13 13:17:21;;;;;;;62.50;27.10;;;;;;;;;;5063691;28;20235;-58
2022/11/13 13:20:19;;;;;;;59.28;28.23;;;;;;;;;;5076065;28;20218;-57
2022/11/13 13:23:10;;;;;;;57.60;25.77;;;;;;;;;;5075331;28;20257;-58
2022/11/13 13:26:15;;;;;;;57.28;26.45;;;;;;;;;;5075228;28;20226;-58
2022/11/13 13:29:17;;;;;;;56.60;24.88;;;;;;;;;;5075491;28;20231;-57
2022/11/13 13:32:22;;;;;;;68.40;32.10;;;;;;;;;;5076147;28;20532;-60
2022/11/13 13:35:20;;;;;;;76.20;37.35;;;;;;;;;;5075098;28;20706;-58
2022/11/13 13:38:54;;;;;;;69.28;31.50;;;;;;;;;;5061683;28;20307;-60
2022/11/13 13:41:51;;;;;;;68.07;31.23;;;;;;;;;;5054918;28;20211;-62
2022/11/13 13:44:39;;;;;;;59.20;27.83;;;;;;;;;;5067461;28;20238;-59
2022/11/13 13:47:29;;;;;;;61.67;26.92;;;;;;;;;;5072865;28;20203;-60
2022/11/13 13:50:24;;;;;;;55.60;24.70;;;;;;;;;;5072519;28;20236;-61
2022/11/13 13:53:28;;;;;;;58.25;25.85;;;;;;;;;;5072029;28;20613;-61
2022/11/13 13:56:14;;;;;;;54.25;24.60;;;;;;;;;;5071123;28;20196;-61
2022/11/13 13:59:00;;;;;;;57.80;25.02;;;;;;;;;;5070582;28;20199;-62
2022/11/13 14:01:57;;;;;;;61.05;26.50;;;;;;;;;;5071323;28;20207;-60
2022/11/13 14:04:46;;;;;;;59.38;27.95;;;;;;;;;;5073588;28;20261;-59
2022/11/13 14:07:34;;;;;;;72.90;36.17;;;;;;;;;;5074533;28;20222;-61
2022/11/13 14:10:22;;;;;;;66.03;31.38;;;;;;;;;;5075041;28;20202;-60
2022/11/13 14:13:11;;;;;;;66.60;29.35;;;;;;;;;;5075461;28;20203;-60
2022/11/13 14:16:03;;;;;;;59.75;27.70;;;;;;;;;;5075064;28;20242;-60
2022/11/13 14:18:49;;;;;;;61.85;27.75;;;;;;;;;;5073386;28;20214;-60
2022/11/13 14:21:35;;;;;;;62.45;27.67;;;;;;;;;;5074506;28;20215;-60
2022/11/13 14:24:58;;;;;;;64.72;29.23;;;;;;;;;;5074701;28;20211;-60
2022/11/13 14:27:43;;;;;;;69.63;29.45;;;;;;;;;;5033517;28;20200;-60
2022/11/13 14:30:30;;;;;;;72.72;31.13;;;;;;;;;;5033333;28;20259;-61
2022/11/13 14:33:21;;;;;;;78.13;31.38;;;;;;;;;;5033704;28;20201;-61
2022/11/13 14:36:07;;;;;;;80.88;29.08;;;;;;;;;;5033462;28;20303;-60
2022/11/13 14:38:53;;;;;;;77.78;29.98;;;;;;;;;;5019293;28;20617;-60
2022/11/13 14:41:51;;;;;;;77.70;30.17;;;;;;;;;;5033416;28;20210;-60
2022/11/13 14:44:37;;;;;;;81.20;32.05;;;;;;;;;;5033149;28;20204;-60
2022/11/13 14:47:28;;;;;;;84.93;35.78;;;;;;;;;;5033240;28;20181;-60
2022/11/13 14:50:22;;;;;;;78.35;30.90;;;;;;;;;;5032916;28;20193;-60
2022/11/13 14:53:09;;;;;;;79.30;32.67;;;;;;;;;;5033573;28;20247;-60
2022/11/13 14:55:58;;;;;;;78.40;31.83;;;;;;;;;;5033236;28;20193;-60
2022/11/13 14:58:47;;;;;;;82.32;34.90;;;;;;;;;;5032592;28;20203;-60
2022/11/13 15:01:33;;;;;;;83.03;33.88;;;;;;;;;;5055195;28;20214;-60
2022/11/13 15:04:18;;;;;;;96.45;35.70;;;;;;;;;;5075021;28;20211;-60
2022/11/13 15:07:29;;;;;;;99.22;36.97;;;;;;;;;;5074739;28;20608;-59
2022/11/13 15:10:17;;;;;;;109.90;38.08;;;;;;;;;;5073911;28;20194;-60
2022/11/13 15:13:14;;;;;;;129.05;45.15;;;;;;;;;;5073846;28;20245;-60
2022/11/13 15:16:00;;;;;;;105.50;37.80;;;;;;;;;;5074114;28;20315;-60
2022/11/13 15:18:54;;;;;;;129.35;48.17;;;;;;;;;;5074440;28;20538;-60
2022/11/13 15:21:40;;;;;;;105.90;38.20;;;;;;;;;;5073684;28;20597;-60
2022/11/13 15:24:32;;;;;;;108.25;38.08;;;;;;;;;;5074642;28;20236;-60
2022/11/13 15:27:18;;;;;;;111.90;39.53;;;;;;;;;;5074792;28;20561;-60
2022/11/13 15:30:04;;;;;;;123.32;44.45;;;;;;;;;;5074022;28;20183;-60
2022/11/13 15:32:52;;;;;;;120.93;38.80;;;;;;;;;;5074462;28;20199;-60
2022/11/13 15:35:41;;;;;;;121.90;40.53;;;;;;;;;;5073650;28;20187;-60
2022/11/13 15:38:27;;;;;;;131.63;40.47;;;;;;;;;;5074355;28;20245;-61
2022/11/13 15:41:15;;;;;;;127.90;40.10;;;;;;;;;;5073989;28;20187;-60
2022/11/13 15:44:08;;;;;;;122.38;40.22;;;;;;;;;;5073555;28;20674;-61
2022/11/13 15:46:54;;;;;;;136.38;41.63;;;;;;;;;;5073542;28;20207;-60
2022/11/13 15:49:40;;;;;;;131.85;40.92;;;;;;;;;;5073594;28;20274;-60
2022/11/13 15:52:49;;;;;;;133.80;39.97;;;;;;;;;;5073776;28;20628;-60
2022/11/13 15:55:34;;;;;;;132.43;43.13;;;;;;;;;;5074728;28;20233;-60
2022/11/13 15:58:20;;;;;;;151.52;41.67;;;;;;;;;;5074380;28;20191;-60
2022/11/13 16:01:05;;;;;;;133.68;40.55;;;;;;;;;;5074027;28;20280;-60
2022/11/13 16:03:51;;;;;;;135.40;42.50;;;;;;;;;;5074458;28;20285;-60
2022/11/13 16:06:37;;;;;;;137.77;43.20;;;;;;;;;;5074361;28;20195;-59
2022/11/13 16:09:23;;;;;;;149.48;42.83;;;;;;;;;;5073242;28;20195;-60
2022/11/13 16:12:11;;;;;;;123.30;41.13;;;;;;;;;;5072974;28;20199;-60
2022/11/13 16:14:57;;;;;;;139.70;45.28;;;;;;;;;;5074402;28;20257;-60
2022/11/13 16:17:45;;;;;;;141.35;48.63;;;;;;;;;;5074070;28;20336;-60
2022/11/13 16:20:31;;;;;;;157.20;49.88;;;;;;;;;;5073945;28;20203;-60
2022/11/13 16:23:17;;;;;;;167.20;51.65;;;;;;;;;;5073975;28;20223;-60
2022/11/13 16:26:03;;;;;;;154.77;51.75;;;;;;;;;;5073525;28;20612;-60
2022/11/13 16:28:51;;;;;;;146.13;45.55;;;;;;;;;;5074290;28;20281;-60
2022/11/13 16:31:57;;;;;;;177.35;42.72;;;;;;;;;;5073771;28;20226;-61